sensor_id;sensor_type;location;lat;lon;timestamp;pressure;altitude;pressure_sealevel;temperature;humidity
47556;BME280;33291;46.222;26.460;2023-02-01T00:01:49;96135.25;;;-0.06;65.33
47556;BME280;33291;46.222;26.460;2023-02-01T00:04:14;96131.94;;;-0.08;65.45
47556;BME280;33291;46.222;26.460;2023-02-01T00:06:40;96146.41;;;-0.07;66.06
47556;BME280;33291;46.222;26.460;2023-02-01T00:09:05;96138.81;;;-0.09;66.30
47556;BME280;33291;46.222;26.460;2023-02-01T00:11:31;96124.69;;;-0.16;66.90
47556;BME280;33291;46.222;26.460;2023-02-01T00:13:57;96129.97;;;-0.19;67.25
47556;BME280;33291;46.222;26.460;2023-02-01T00:16:25;96137.56;;;-0.17;67.77
47556;BME280;33291;46.222;26.460;2023-02-01T00:18:52;96141.19;;;-0.22;68.06
47556;BME280;33291;46.222;26.460;2023-02-01T00:21:21;96131.94;;;-0.24;68.02
47556;BME280;33291;46.222;26.460;2023-02-01T00:23:46;96132.94;;;-0.27;68.42
47556;BME280;33291;46.222;26.460;2023-02-01T00:26:18;96134.88;;;-0.32;68.13
47556;BME280;33291;46.222;26.460;2023-02-01T00:28:45;96138.06;;;-0.27;68.02
47556;BME280;33291;46.222;26.460;2023-02-01T00:31:10;96144.91;;;-0.27;67.69
47556;BME280;33291;46.222;26.460;2023-02-01T00:33:36;96142.50;;;-0.30;68.32
47556;BME280;33291;46.222;26.460;2023-02-01T00:36:04;96136.72;;;-0.34;68.87
47556;BME280;33291;46.222;26.460;2023-02-01T00:38:30;96140.94;;;-0.33;69.25
47556;BME280;33291;46.222;26.460;2023-02-01T00:41:23;96138.47;;;-0.34;69.50
47556;BME280;33291;46.222;26.460;2023-02-01T00:43:50;96131.75;;;-0.37;69.45
47556;BME280;33291;46.222;26.460;2023-02-01T00:46:17;96133.50;;;-0.38;70.21
47556;BME280;33291;46.222;26.460;2023-02-01T00:48:43;96125.13;;;-0.41;70.01
47556;BME280;33291;46.222;26.460;2023-02-01T00:51:13;96125.13;;;-0.41;70.78
47556;BME280;33291;46.222;26.460;2023-02-01T00:53:39;96123.59;;;-0.44;69.91
47556;BME280;33291;46.222;26.460;2023-02-01T00:56:05;96126.16;;;-0.44;69.38
47556;BME280;33291;46.222;26.460;2023-02-01T00:58:32;96118.38;;;-0.42;68.50
47556;BME280;33291;46.222;26.460;2023-02-01T01:01:22;96113.94;;;-0.39;69.19
47556;BME280;33291;46.222;26.460;2023-02-01T01:03:52;96110.47;;;-0.38;69.06
47556;BME280;33291;46.222;26.460;2023-02-01T01:06:24;96099.53;;;-0.41;68.85
47556;BME280;33291;46.222;26.460;2023-02-01T01:08:54;96110.22;;;-0.33;69.01
47556;BME280;33291;46.222;26.460;2023-02-01T01:11:23;96083.22;;;-0.55;68.79
47556;BME280;33291;46.222;26.460;2023-02-01T01:13:50;96119.53;;;-0.32;68.99
47556;BME280;33291;46.222;26.460;2023-02-01T01:16:17;96103.69;;;-0.39;68.75
47556;BME280;33291;46.222;26.460;2023-02-01T01:18:43;96122.84;;;-0.30;68.82
47556;BME280;33291;46.222;26.460;2023-02-01T01:21:12;96108.00;;;-0.39;69.23
47556;BME280;33291;46.222;26.460;2023-02-01T01:23:37;96108.47;;;-0.32;68.92
47556;BME280;33291;46.222;26.460;2023-02-01T01:26:11;96100.16;;;-0.36;68.51
47556;BME280;33291;46.222;26.460;2023-02-01T01:28:37;96108.47;;;-0.32;69.41
47556;BME280;33291;46.222;26.460;2023-02-01T01:31:07;96105.28;;;-0.36;70.11
47556;BME280;33291;46.222;26.460;2023-02-01T01:33:33;96097.84;;;-0.41;70.32
47556;BME280;33291;46.222;26.460;2023-02-01T01:35:59;96110.88;;;-0.45;70.45
47556;BME280;33291;46.222;26.460;2023-02-01T01:38:24;96106.66;;;-0.46;69.87
47556;BME280;33291;46.222;26.460;2023-02-01T01:40:50;96104.34;;;-0.51;72.38
47556;BME280;33291;46.222;26.460;2023-02-01T01:43:18;96103.00;;;-0.58;71.19
47556;BME280;33291;46.222;26.460;2023-02-01T01:45:45;96092.84;;;-0.60;69.92
47556;BME280;33291;46.222;26.460;2023-02-01T01:48:17;96089.47;;;-0.60;71.96
47556;BME280;33291;46.222;26.460;2023-02-01T01:50:44;96086.16;;;-0.62;73.25
47556;BME280;33291;46.222;26.460;2023-02-01T01:53:16;96073.09;;;-0.74;72.88
47556;BME280;33291;46.222;26.460;2023-02-01T01:55:45;96077.41;;;-0.74;73.21
47556;BME280;33291;46.222;26.460;2023-02-01T01:58:17;96078.31;;;-0.75;71.99
47556;BME280;33291;46.222;26.460;2023-02-01T02:00:44;96075.09;;;-0.79;73.45
47556;BME280;33291;46.222;26.460;2023-02-01T02:03:20;96067.06;;;-0.88;72.76
47556;BME280;33291;46.222;26.460;2023-02-01T02:05:49;96080.97;;;-0.94;75.69
47556;BME280;33291;46.222;26.460;2023-02-01T02:08:17;96072.13;;;-1.04;75.24
47556;BME280;33291;46.222;26.460;2023-02-01T02:10:42;96084.06;;;-1.05;75.34
47556;BME280;33291;46.222;26.460;2023-02-01T02:13:33;96092.75;;;-1.08;75.32
47556;BME280;33291;46.222;26.460;2023-02-01T02:27:18;96071.84;;;-1.16;75.16
47556;BME280;33291;46.222;26.460;2023-02-01T02:35:59;96059.91;;;-1.33;73.57
47556;BME280;33291;46.222;26.460;2023-02-01T02:41:39;96058.41;;;-1.37;74.89
47556;BME280;33291;46.222;26.460;2023-02-01T02:44:43;96065.91;;;-1.34;70.49
47556;BME280;33291;46.222;26.460;2023-02-01T02:47:56;96062.41;;;-1.31;73.92
47556;BME280;33291;46.222;26.460;2023-02-01T02:50:25;96062.56;;;-1.34;71.99
47556;BME280;33291;46.222;26.460;2023-02-01T02:56:42;96049.72;;;-1.50;73.22
47556;BME280;33291;46.222;26.460;2023-02-01T02:59:27;96060.06;;;-1.36;71.59
47556;BME280;33291;46.222;26.460;2023-02-01T03:02:13;96060.88;;;-1.35;73.21
47556;BME280;33291;46.222;26.460;2023-02-01T03:04:58;96051.44;;;-1.33;70.47
47556;BME280;33291;46.222;26.460;2023-02-01T03:16:04;96046.09;;;-1.29;70.65
47556;BME280;33291;46.222;26.460;2023-02-01T03:21:12;96043.38;;;-1.43;72.32
47556;BME280;33291;46.222;26.460;2023-02-01T03:23:42;96033.78;;;-1.55;73.02
47556;BME280;33291;46.222;26.460;2023-02-01T03:26:12;96060.28;;;-1.58;75.07
47556;BME280;33291;46.222;26.460;2023-02-01T03:28:44;96051.53;;;-1.70;75.36
47556;BME280;33291;46.222;26.460;2023-02-01T03:31:13;96056.63;;;-1.70;75.17
47556;BME280;33291;46.222;26.460;2023-02-01T03:33:39;96047.09;;;-1.66;75.38
47556;BME280;33291;46.222;26.460;2023-02-01T03:36:19;96045.72;;;-1.73;74.97
47556;BME280;33291;46.222;26.460;2023-02-01T03:38:52;96044.09;;;-1.74;76.37
47556;BME280;33291;46.222;26.460;2023-02-01T03:41:38;96053.47;;;-1.75;76.71
47556;BME280;33291;46.222;26.460;2023-02-01T03:44:19;96040.09;;;-1.80;77.04
47556;BME280;33291;46.222;26.460;2023-02-01T03:46:52;96045.06;;;-1.77;77.65
47556;BME280;33291;46.222;26.460;2023-02-01T03:49:28;96050.16;;;-1.77;77.35
47556;BME280;33291;46.222;26.460;2023-02-01T03:51:57;96023.13;;;-1.81;77.20
47556;BME280;33291;46.222;26.460;2023-02-01T03:54:24;96034.84;;;-1.77;76.54
47556;BME280;33291;46.222;26.460;2023-02-01T03:56:52;96037.25;;;-1.74;76.96
47556;BME280;33291;46.222;26.460;2023-02-01T03:59:19;96033.72;;;-1.71;75.09
47556;BME280;33291;46.222;26.460;2023-02-01T04:01:44;96032.44;;;-1.63;75.10
47556;BME280;33291;46.222;26.460;2023-02-01T04:04:11;96045.03;;;-1.59;75.68
47556;BME280;33291;46.222;26.460;2023-02-01T04:06:48;96021.03;;;-1.73;76.08
47556;BME280;33291;46.222;26.460;2023-02-01T04:09:15;96026.34;;;-1.60;74.48
47556;BME280;33291;46.222;26.460;2023-02-01T04:11:41;96030.50;;;-1.57;75.02
47556;BME280;33291;46.222;26.460;2023-02-01T04:14:06;96024.69;;;-1.61;76.23
47556;BME280;33291;46.222;26.460;2023-02-01T04:16:32;96016.28;;;-1.63;73.69
47556;BME280;33291;46.222;26.460;2023-02-01T04:18:58;96000.06;;;-1.62;74.16
47556;BME280;33291;46.222;26.460;2023-02-01T04:21:25;96014.19;;;-1.55;74.77
47556;BME280;33291;46.222;26.460;2023-02-01T04:23:51;96015.81;;;-1.54;73.49
47556;BME280;33291;46.222;26.460;2023-02-01T04:26:17;96025.06;;;-1.51;74.91
47556;BME280;33291;46.222;26.460;2023-02-01T04:28:44;96026.59;;;-1.47;72.34
47556;BME280;33291;46.222;26.460;2023-02-01T04:31:09;96013.25;;;-1.36;70.42
47556;BME280;33291;46.222;26.460;2023-02-01T04:33:35;96020.63;;;-1.30;71.68
47556;BME280;33291;46.222;26.460;2023-02-01T04:36:00;96020.38;;;-1.26;71.04
47556;BME280;33291;46.222;26.460;2023-02-01T04:38:26;96010.34;;;-1.13;69.33
47556;BME280;33291;46.222;26.460;2023-02-01T04:40:54;96006.91;;;-1.12;68.78
47556;BME280;33291;46.222;26.460;2023-02-01T04:43:19;96013.34;;;-1.04;69.81
47556;BME280;33291;46.222;26.460;2023-02-01T04:45:49;96014.44;;;-0.93;67.13
47556;BME280;33291;46.222;26.460;2023-02-01T04:48:16;96003.31;;;-0.76;65.81
47556;BME280;33291;46.222;26.460;2023-02-01T04:50:43;95983.19;;;-0.82;66.17
47556;BME280;33291;46.222;26.460;2023-02-01T04:53:11;95992.69;;;-0.68;66.36
47556;BME280;33291;46.222;26.460;2023-02-01T04:55:36;95980.06;;;-0.71;66.09
47556;BME280;33291;46.222;26.460;2023-02-01T04:58:02;95975.25;;;-0.61;65.93
47556;BME280;33291;46.222;26.460;2023-02-01T05:00:27;95965.91;;;-0.62;66.95
47556;BME280;33291;46.222;26.460;2023-02-01T05:02:53;95954.13;;;-0.65;66.90
47556;BME280;33291;46.222;26.460;2023-02-01T05:05:18;95974.91;;;-0.55;66.02
47556;BME280;33291;46.222;26.460;2023-02-01T05:07:45;95961.16;;;-0.52;65.69
47556;BME280;33291;46.222;26.460;2023-02-01T05:10:12;95947.53;;;-0.53;65.13
47556;BME280;33291;46.222;26.460;2023-02-01T05:12:37;95960.00;;;-0.47;65.27
47556;BME280;33291;46.222;26.460;2023-02-01T05:15:21;95975.09;;;-0.42;65.56
47556;BME280;33291;46.222;26.460;2023-02-01T05:17:46;95971.78;;;-0.44;67.49
47556;BME280;33291;46.222;26.460;2023-02-01T05:20:12;95987.13;;;-0.44;67.77
47556;BME280;33291;46.222;26.460;2023-02-01T05:22:37;95976.16;;;-0.46;68.62
47556;BME280;33291;46.222;26.460;2023-02-01T05:25:03;95995.13;;;-0.50;70.53
47556;BME280;33291;46.222;26.460;2023-02-01T05:27:30;95969.16;;;-0.59;70.35
47556;BME280;33291;46.222;26.460;2023-02-01T05:29:55;95970.38;;;-0.66;71.33
47556;BME280;33291;46.222;26.460;2023-02-01T05:32:21;95994.00;;;-0.61;72.23
47556;BME280;33291;46.222;26.460;2023-02-01T05:34:46;95987.22;;;-0.62;68.79
47556;BME280;33291;46.222;26.460;2023-02-01T05:37:12;95990.44;;;-0.58;68.12
47556;BME280;33291;46.222;26.460;2023-02-01T05:39:37;95986.97;;;-0.57;69.08
47556;BME280;33291;46.222;26.460;2023-02-01T05:42:03;95979.22;;;-0.56;69.29
47556;BME280;33291;46.222;26.460;2023-02-01T05:44:28;95978.31;;;-0.55;68.12
47556;BME280;33291;46.222;26.460;2023-02-01T05:46:54;96007.59;;;-0.44;67.77
47556;BME280;33291;46.222;26.460;2023-02-01T05:49:19;96012.78;;;-0.46;68.10
47556;BME280;33291;46.222;26.460;2023-02-01T05:51:45;96005.97;;;-0.45;67.84
47556;BME280;33291;46.222;26.460;2023-02-01T05:54:11;95987.47;;;-0.50;68.06
47556;BME280;33291;46.222;26.460;2023-02-01T05:56:36;96011.97;;;-0.46;68.97
47556;BME280;33291;46.222;26.460;2023-02-01T05:59:02;96015.28;;;-0.44;68.47
47556;BME280;33291;46.222;26.460;2023-02-01T06:01:27;96008.34;;;-0.42;67.22
47556;BME280;33291;46.222;26.460;2023-02-01T06:03:53;96000.59;;;-0.41;68.43
47556;BME280;33291;46.222;26.460;2023-02-01T06:06:18;95991.16;;;-0.40;67.55
47556;BME280;33291;46.222;26.460;2023-02-01T06:08:45;95986.31;;;-0.45;67.46
47556;BME280;33291;46.222;26.460;2023-02-01T06:11:11;95995.78;;;-0.31;67.05
47556;BME280;33291;46.222;26.460;2023-02-01T06:13:36;95994.72;;;-0.27;67.46
47556;BME280;33291;46.222;26.460;2023-02-01T06:16:04;95995.34;;;-0.23;67.03
47556;BME280;33291;46.222;26.460;2023-02-01T06:18:32;95989.25;;;-0.21;66.75
47556;BME280;33291;46.222;26.460;2023-02-01T06:20:59;96000.31;;;-0.20;66.68
47556;BME280;33291;46.222;26.460;2023-02-01T06:23:29;96005.09;;;-0.14;67.24
47556;BME280;33291;46.222;26.460;2023-02-01T06:25:59;95999.88;;;-0.12;67.84
47556;BME280;33291;46.222;26.460;2023-02-01T06:28:26;96019.38;;;-0.10;67.44
47556;BME280;33291;46.222;26.460;2023-02-01T06:30:52;96010.78;;;-0.09;67.59
47556;BME280;33291;46.222;26.460;2023-02-01T06:33:17;95999.63;;;-0.08;67.54
47556;BME280;33291;46.222;26.460;2023-02-01T06:35:43;96008.06;;;-0.06;68.35
47556;BME280;33291;46.222;26.460;2023-02-01T06:38:12;96031.19;;;-0.07;68.78
47556;BME280;33291;46.222;26.460;2023-02-01T06:40:39;96017.63;;;-0.09;69.06
47556;BME280;33291;46.222;26.460;2023-02-01T06:43:06;96027.88;;;-0.09;70.82
47556;BME280;33291;46.222;26.460;2023-02-01T06:45:31;96029.69;;;-0.11;70.84
47556;BME280;33291;46.222;26.460;2023-02-01T06:47:58;96019.63;;;-0.14;71.46
47556;BME280;33291;46.222;26.460;2023-02-01T06:50:24;96028.22;;;-0.15;72.45
47556;BME280;33291;46.222;26.460;2023-02-01T06:52:50;96020.97;;;-0.23;73.54
47556;BME280;33291;46.222;26.460;2023-02-01T06:55:15;96020.88;;;-0.22;73.55
47556;BME280;33291;46.222;26.460;2023-02-01T06:57:41;96004.13;;;-0.27;73.74
47556;BME280;33291;46.222;26.460;2023-02-01T07:00:07;96015.59;;;-0.19;73.94
47556;BME280;33291;46.222;26.460;2023-02-01T07:02:32;96019.81;;;-0.17;73.98
47556;BME280;33291;46.222;26.460;2023-02-01T07:04:58;96016.34;;;-0.16;74.06
47556;BME280;33291;46.222;26.460;2023-02-01T07:07:23;96020.44;;;-0.14;74.45
47556;BME280;33291;46.222;26.460;2023-02-01T07:09:49;96009.56;;;-0.17;74.43
47556;BME280;33291;46.222;26.460;2023-02-01T07:12:15;96033.16;;;-0.12;75.39
47556;BME280;33291;46.222;26.460;2023-02-01T07:14:40;96029.69;;;-0.11;75.38
47556;BME280;33291;46.222;26.460;2023-02-01T07:17:06;96000.63;;;-0.10;75.64
47556;BME280;33291;46.222;26.460;2023-02-01T07:19:32;96016.56;;;-0.05;71.63
47556;BME280;33291;46.222;26.460;2023-02-01T07:21:58;96028.13;;;0.02;71.24
47556;BME280;33291;46.222;26.460;2023-02-01T07:24:23;96016.13;;;0.03;71.34
47556;BME280;33291;46.222;26.460;2023-02-01T07:26:49;96018.25;;;0.10;71.68
47556;BME280;33291;46.222;26.460;2023-02-01T07:29:17;96018.09;;;0.13;71.87
47556;BME280;33291;46.222;26.460;2023-02-01T07:31:42;96034.56;;;0.09;71.89
47556;BME280;33291;46.222;26.460;2023-02-01T07:34:08;96027.06;;;0.21;72.35
47556;BME280;33291;46.222;26.460;2023-02-01T07:36:33;96036.25;;;0.25;73.05
47556;BME280;33291;46.222;26.460;2023-02-01T07:38:59;96016.66;;;0.24;72.73
47556;BME280;33291;46.222;26.460;2023-02-01T07:41:25;96026.28;;;0.34;72.40
47556;BME280;33291;46.222;26.460;2023-02-01T07:43:54;96012.41;;;0.39;71.35
47556;BME280;33291;46.222;26.460;2023-02-01T07:46:19;96021.28;;;0.47;71.83
47556;BME280;33291;46.222;26.460;2023-02-01T07:48:45;96030.53;;;0.50;70.12
47556;BME280;33291;46.222;26.460;2023-02-01T07:51:13;96036.31;;;0.53;70.24
47556;BME280;33291;46.222;26.460;2023-02-01T07:53:39;96024.22;;;0.56;69.08
47556;BME280;33291;46.222;26.460;2023-02-01T07:56:11;96017.09;;;0.61;69.57
47556;BME280;33291;46.222;26.460;2023-02-01T07:58:38;96014.19;;;0.67;70.20
47556;BME280;33291;46.222;26.460;2023-02-01T08:01:03;96014.19;;;0.67;69.31
47556;BME280;33291;46.222;26.460;2023-02-01T08:03:54;96019.78;;;0.74;69.52
47556;BME280;33291;46.222;26.460;2023-02-01T08:06:21;96018.97;;;0.73;69.20
47556;BME280;33291;46.222;26.460;2023-02-01T08:08:51;96004.47;;;0.72;71.04
47556;BME280;33291;46.222;26.460;2023-02-01T08:11:18;96007.94;;;0.71;70.82
47556;BME280;33291;46.222;26.460;2023-02-01T08:13:44;95994.50;;;0.67;69.77
47556;BME280;33291;46.222;26.460;2023-02-01T08:16:11;96007.94;;;0.71;66.98
47556;BME280;33291;46.222;26.460;2023-02-01T08:18:37;95995.53;;;0.79;67.21
47556;BME280;33291;46.222;26.460;2023-02-01T08:21:12;96000.81;;;0.76;65.64
47556;BME280;33291;46.222;26.460;2023-02-01T08:23:39;95998.44;;;0.87;65.08
47556;BME280;33291;46.222;26.460;2023-02-01T08:26:27;96016.03;;;0.94;64.54
47556;BME280;33291;46.222;26.460;2023-02-01T08:28:55;96008.91;;;0.99;64.10
47556;BME280;33291;46.222;26.460;2023-02-01T08:31:23;96009.53;;;1.02;63.85
47556;BME280;33291;46.222;26.460;2023-02-01T08:33:54;96003.41;;;1.05;63.72
47556;BME280;33291;46.222;26.460;2023-02-01T08:36:21;96004.84;;;1.09;64.09
47556;BME280;33291;46.222;26.460;2023-02-01T08:38:46;95986.88;;;1.09;64.23
47556;BME280;33291;46.222;26.460;2023-02-01T08:41:18;95988.91;;;1.04;64.65
47556;BME280;33291;46.222;26.460;2023-02-01T08:43:45;95978.47;;;1.07;64.27
47556;BME280;33291;46.222;26.460;2023-02-01T08:46:11;95983.22;;;1.13;64.44
47556;BME280;33291;46.222;26.460;2023-02-01T08:48:38;95987.78;;;1.22;64.64
47556;BME280;33291;46.222;26.460;2023-02-01T08:51:05;95990.91;;;1.28;64.23
47556;BME280;33291;46.222;26.460;2023-02-01T08:53:32;95982.09;;;1.32;64.58
47556;BME280;33291;46.222;26.460;2023-02-01T08:55:57;95975.84;;;1.36;64.36
47556;BME280;33291;46.222;26.460;2023-02-01T08:58:23;95970.53;;;1.39;63.54
47556;BME280;33291;46.222;26.460;2023-02-01T09:00:48;95964.41;;;1.41;64.28
47556;BME280;33291;46.222;26.460;2023-02-01T09:03:15;95982.59;;;1.51;63.98
47556;BME280;33291;46.222;26.460;2023-02-01T09:05:41;95972.13;;;1.54;63.64
47556;BME280;33291;46.222;26.460;2023-02-01T09:08:07;95960.06;;;1.56;63.80
47556;BME280;33291;46.222;26.460;2023-02-01T09:10:33;95967.38;;;1.63;63.79
47556;BME280;33291;46.222;26.460;2023-02-01T09:12:59;95972.44;;;1.77;63.47
47556;BME280;33291;46.222;26.460;2023-02-01T09:15:25;95960.75;;;1.86;63.55
47556;BME280;33291;46.222;26.460;2023-02-01T09:17:50;95940.44;;;1.95;62.83
47556;BME280;33291;46.222;26.460;2023-02-01T09:20:16;95957.31;;;2.12;62.64
47556;BME280;33291;46.222;26.460;2023-02-01T09:22:42;95960.41;;;2.18;61.50
47556;BME280;33291;46.222;26.460;2023-02-01T09:25:08;95955.06;;;2.21;61.17
47556;BME280;33291;46.222;26.460;2023-02-01T09:27:34;95952.91;;;2.15;60.62
47556;BME280;33291;46.222;26.460;2023-02-01T09:30:00;95968.22;;;2.16;61.08
47556;BME280;33291;46.222;26.460;2023-02-01T09:32:25;95963.28;;;2.13;61.17
47556;BME280;33291;46.222;26.460;2023-02-01T09:34:52;95959.25;;;2.09;60.80
47556;BME280;33291;46.222;26.460;2023-02-01T09:37:18;95956.91;;;2.06;61.11
47556;BME280;33291;46.222;26.460;2023-02-01T09:39:43;95944.34;;;2.01;60.88
47556;BME280;33291;46.222;26.460;2023-02-01T09:45:26;95950.69;;;1.95;61.02
47556;BME280;33291;46.222;26.460;2023-02-01T09:47:58;95934.22;;;1.85;61.13
47556;BME280;33291;46.222;26.460;2023-02-01T09:50:35;95967.06;;;1.94;61.33
47556;BME280;33291;46.222;26.460;2023-02-01T09:53:11;95944.34;;;1.88;61.78
47556;BME280;33291;46.222;26.460;2023-02-01T09:55:50;95950.19;;;1.90;61.39
47556;BME280;33291;46.222;26.460;2023-02-01T09:58:38;95955.31;;;1.90;61.03
47556;BME280;33291;46.222;26.460;2023-02-01T10:01:18;95953.38;;;1.94;61.44
47556;BME280;33291;46.222;26.460;2023-02-01T10:03:44;95941.03;;;1.86;61.54
47556;BME280;33291;46.222;26.460;2023-02-01T10:11:38;95951.09;;;1.89;60.60
47556;BME280;33291;46.222;26.460;2023-02-01T10:14:39;95943.41;;;1.89;60.43
47556;BME280;33291;46.222;26.460;2023-02-01T10:25:12;95946.59;;;1.93;60.29
47556;BME280;33291;46.222;26.460;2023-02-01T10:27:38;95950.09;;;1.92;60.59
47556;BME280;33291;46.222;26.460;2023-02-01T10:30:25;95943.41;;;1.89;61.23
47556;BME280;33291;46.222;26.460;2023-02-01T10:33:01;95958.69;;;1.91;62.01
47556;BME280;33291;46.222;26.460;2023-02-01T10:35:34;95953.56;;;1.91;61.95
47556;BME280;33291;46.222;26.460;2023-02-01T10:38:02;95946.81;;;1.90;62.37
47556;BME280;33291;46.222;26.460;2023-02-01T10:40:29;95954.78;;;1.85;63.21
47556;BME280;33291;46.222;26.460;2023-02-01T10:43:00;95942.69;;;1.87;62.93
47556;BME280;33291;46.222;26.460;2023-02-01T10:45:29;95947.06;;;1.85;63.52
47556;BME280;33291;46.222;26.460;2023-02-01T10:47:57;95934.97;;;1.87;63.54
47556;BME280;33291;46.222;26.460;2023-02-01T10:50:57;95946.91;;;1.88;62.83
47556;BME280;33291;46.222;26.460;2023-02-01T10:56:13;95919.22;;;1.79;63.39
47556;BME280;33291;46.222;26.460;2023-02-01T10:58:46;95924.91;;;1.84;63.74
47556;BME280;33291;46.222;26.460;2023-02-01T11:01:18;95925.63;;;1.86;64.02
47556;BME280;33291;46.222;26.460;2023-02-01T11:03:52;95930.56;;;1.89;63.50
47556;BME280;33291;46.222;26.460;2023-02-01T11:08:53;95928.53;;;1.94;63.12
47556;BME280;33291;46.222;26.460;2023-02-01T11:11:20;95930.91;;;1.98;63.56
47556;BME280;33291;46.222;26.460;2023-02-01T11:13:52;95927.72;;;2.07;62.63
47556;BME280;33291;46.222;26.460;2023-02-01T11:16:18;95924.22;;;2.08;63.29
47556;BME280;33291;46.222;26.460;2023-02-01T11:18:44;95920.56;;;2.25;62.98
47556;BME280;33291;46.222;26.460;2023-02-01T11:21:10;95919.72;;;2.50;61.83
47556;BME280;33291;46.222;26.460;2023-02-01T11:23:42;95882.59;;;2.54;61.96
47556;BME280;33291;46.222;26.460;2023-02-01T11:26:35;95919.06;;;2.85;62.06
47556;BME280;33291;46.222;26.460;2023-02-01T11:29:10;95911.44;;;2.83;61.26
47556;BME280;33291;46.222;26.460;2023-02-01T11:31:38;95920.41;;;2.78;61.57
47556;BME280;33291;46.222;26.460;2023-02-01T11:34:25;95926.06;;;2.70;62.03
47556;BME280;33291;46.222;26.460;2023-02-01T11:36:54;95920.97;;;2.57;61.33
47556;BME280;33291;46.222;26.460;2023-02-01T11:39:41;95928.78;;;2.56;62.60
47556;BME280;33291;46.222;26.460;2023-02-01T11:42:15;95930.75;;;2.52;62.93
47556;BME280;33291;46.222;26.460;2023-02-01T11:44:45;95936.16;;;2.47;63.23
47556;BME280;33291;46.222;26.460;2023-02-01T11:47:24;95922.91;;;2.41;63.35
47556;BME280;33291;46.222;26.460;2023-02-01T11:50:00;95933.09;;;2.42;63.58
47556;BME280;33291;46.222;26.460;2023-02-01T12:37:11;95917.88;;;2.52;63.12
47556;BME280;33291;46.222;26.460;2023-02-01T12:42:41;95936.69;;;2.78;62.94
47556;BME280;33291;46.222;26.460;2023-02-01T12:45:30;95928.94;;;2.91;62.49
47556;BME280;33291;46.222;26.460;2023-02-01T12:50:42;95924.91;;;3.13;60.01
47556;BME280;33291;46.222;26.460;2023-02-01T12:53:47;95915.31;;;3.15;59.58
47556;BME280;33291;46.222;26.460;2023-02-01T12:56:26;95910.00;;;3.29;59.98
47556;BME280;33291;46.222;26.460;2023-02-01T12:58:56;95920.16;;;3.44;59.41
47556;BME280;33291;46.222;26.460;2023-02-01T13:01:35;95924.97;;;3.72;58.32
47556;BME280;33291;46.222;26.460;2023-02-01T13:04:24;95924.44;;;3.91;56.00
47556;BME280;33291;46.222;26.460;2023-02-01T13:06:55;95928.38;;;4.08;56.24
47556;BME280;33291;46.222;26.460;2023-02-01T13:11:57;95911.78;;;4.24;54.79
47556;BME280;33291;46.222;26.460;2023-02-01T13:14:32;95920.03;;;4.40;53.99
47556;BME280;33291;46.222;26.460;2023-02-01T13:17:14;95928.00;;;4.49;54.42
47556;BME280;33291;46.222;26.460;2023-02-01T13:22:32;95928.34;;;4.44;53.00
47556;BME280;33291;46.222;26.460;2023-02-01T13:25:02;95916.13;;;4.35;53.16
47556;BME280;33291;46.222;26.460;2023-02-01T13:27:29;95900.44;;;4.38;53.97
47556;BME280;33291;46.222;26.460;2023-02-01T13:35:02;95903.63;;;4.53;53.00
47556;BME280;33291;46.222;26.460;2023-02-01T13:40:41;95901.50;;;4.47;51.60
47556;BME280;33291;46.222;26.460;2023-02-01T13:43:29;95900.78;;;4.44;52.49
47556;BME280;33291;46.222;26.460;2023-02-01T13:45:57;95892.56;;;4.28;51.60
47556;BME280;33291;46.222;26.460;2023-02-01T13:48:40;95901.59;;;4.22;52.47
47556;BME280;33291;46.222;26.460;2023-02-01T13:51:12;95911.06;;;4.22;52.09
47556;BME280;33291;46.222;26.460;2023-02-01T13:53:45;95896.06;;;4.16;51.75
47556;BME280;33291;46.222;26.460;2023-02-01T13:56:15;95909.16;;;4.13;52.71
47556;BME280;33291;46.222;26.460;2023-02-01T13:58:44;95906.00;;;4.09;53.23
47556;BME280;33291;46.222;26.460;2023-02-01T14:03:51;95922.41;;;4.08;52.54
47556;BME280;33291;46.222;26.460;2023-02-01T14:11:50;95908.78;;;4.53;56.34
47556;BME280;33291;46.222;26.460;2023-02-01T14:16:42;95922.09;;;4.24;56.04
47556;BME280;33291;46.222;26.460;2023-02-01T14:19:30;95922.72;;;4.03;57.29
47556;BME280;33291;46.222;26.460;2023-02-01T14:21:59;95923.53;;;3.92;52.57
47556;BME280;33291;46.222;26.460;2023-02-01T14:24:36;95909.63;;;3.71;53.88
47556;BME280;33291;46.222;26.460;2023-02-01T14:29:38;95926.06;;;3.57;57.98
47556;BME280;33291;46.222;26.460;2023-02-01T14:32:18;95923.44;;;3.46;55.21
47556;BME280;33291;46.222;26.460;2023-02-01T14:42:43;95952.66;;;3.20;60.88
47556;BME280;33291;46.222;26.460;2023-02-01T14:47:45;95964.09;;;3.03;62.44
47556;BME280;33291;46.222;26.460;2023-02-01T14:55:59;95971.66;;;2.81;64.32
47556;BME280;33291;46.222;26.460;2023-02-01T14:58:52;95976.59;;;2.58;65.63
47556;BME280;33291;46.222;26.460;2023-02-01T15:01:25;95979.38;;;2.55;65.67
47556;BME280;33291;46.222;26.460;2023-02-01T15:14:23;96004.19;;;2.16;67.42
47556;BME280;33291;46.222;26.460;2023-02-01T15:16:49;96001.28;;;2.08;68.23
47556;BME280;33291;46.222;26.460;2023-02-01T15:19:22;96000.88;;;2.01;69.45
47556;BME280;33291;46.222;26.460;2023-02-01T15:21:53;95998.16;;;1.90;70.14
47556;BME280;33291;46.222;26.460;2023-02-01T15:24:22;95999.38;;;1.84;70.20
47556;BME280;33291;46.222;26.460;2023-02-01T15:26:48;95998.72;;;1.81;70.49
47556;BME280;33291;46.222;26.460;2023-02-01T15:29:14;96004.06;;;1.77;71.79
47556;BME280;33291;46.222;26.460;2023-02-01T15:31:51;96001.16;;;1.69;72.60
47556;BME280;33291;46.222;26.460;2023-02-01T15:34:18;95984.63;;;1.46;73.37
47556;BME280;33291;46.222;26.460;2023-02-01T15:36:45;96008.47;;;1.48;72.47
47556;BME280;33291;46.222;26.460;2023-02-01T15:39:37;96011.69;;;1.37;73.36
47556;BME280;33291;46.222;26.460;2023-02-01T15:42:22;96020.88;;;1.27;74.15
47556;BME280;33291;46.222;26.460;2023-02-01T15:44:48;96010.72;;;1.11;74.75
47556;BME280;33291;46.222;26.460;2023-02-01T15:47:18;96004.50;;;1.01;73.48
47556;BME280;33291;46.222;26.460;2023-02-01T15:49:51;96018.88;;;1.03;74.51
47556;BME280;33291;46.222;26.460;2023-02-01T15:55:18;96018.41;;;0.97;74.96